Time;durP1;ratioP1;P1;durP2;ratioP2;P2;SDS_P1;SDS_P2;PMS_P1;PMS_P2;Temp;Humidity;BMP_temperature;BMP_pressure;BME280_temperature;BME280_humidity;BME280_pressure;Samples;Min_cycle;Max_cycle;Signal;HPM_P1;HPM_P2
2020/12/13 00:02:24;;;;;;;16.40;8.50;;;;;;;4.69;100.00;95288.69;5080660;28;20253;-70
2020/12/13 00:04:51;;;;;;;15.03;8.63;;;;;;;4.70;100.00;95292.91;5080636;28;20212;-70
2020/12/13 00:07:17;;;;;;;14.43;8.73;;;;;;;4.76;100.00;95294.88;5079116;28;20891;-71
2020/12/13 00:09:43;;;;;;;13.67;8.40;;;;;;;4.81;100.00;95295.19;5080135;28;20219;-69
2020/12/13 00:12:09;;;;;;;14.03;8.47;;;;;;;4.67;100.00;95295.84;5080621;28;20200;-69
2020/12/13 00:14:35;;;;;;;15.03;9.33;;;;;;;4.76;100.00;95300.09;5080181;28;20218;-70
2020/12/13 00:17:02;;;;;;;14.07;9.00;;;;;;;4.76;100.00;95294.88;5079580;28;20220;-70
2020/12/13 00:19:28;;;;;;;14.60;8.73;;;;;;;4.77;100.00;95297.31;5079911;28;20243;-70
2020/12/13 00:21:56;;;;;;;14.33;8.50;;;;;;;4.72;100.00;95302.19;5079937;28;21015;-70
2020/12/13 00:24:23;;;;;;;14.70;9.50;;;;;;;4.79;100.00;95302.38;5079522;28;20572;-70
2020/12/13 00:26:49;;;;;;;15.00;9.17;;;;;;;4.74;100.00;95312.50;5079447;28;20566;-70
2020/12/13 00:29:16;;;;;;;15.47;9.30;;;;;;;4.73;100.00;95305.66;5079689;28;20226;-70
2020/12/13 00:31:42;;;;;;;19.97;11.53;;;;;;;4.76;100.00;95310.53;5079439;28;20258;-71
2020/12/13 00:34:08;;;;;;;17.33;10.43;;;;;;;4.83;100.00;95317.53;5080330;28;20726;-70
2020/12/13 00:36:34;;;;;;;18.80;11.17;;;;;;;4.88;100.00;95312.63;5079229;28;20216;-70
2020/12/13 00:39:01;;;;;;;16.17;9.60;;;;;;;4.73;100.00;95316.88;5079265;28;20204;-70
2020/12/13 00:41:27;;;;;;;19.63;9.90;;;;;;;4.76;100.00;95315.75;5079769;28;20571;-70
2020/12/13 00:43:53;;;;;;;15.27;9.67;;;;;;;4.69;100.00;95314.78;5079860;28;20200;-70
2020/12/13 00:46:19;;;;;;;15.40;9.57;;;;;;;4.73;100.00;95316.09;5079226;28;20200;-69
2020/12/13 00:48:45;;;;;;;18.10;10.20;;;;;;;4.76;100.00;95320.97;5079100;28;20203;-70
2020/12/13 00:51:11;;;;;;;16.30;9.17;;;;;;;4.76;100.00;95324.41;5079564;28;20224;-69
2020/12/13 00:53:37;;;;;;;16.37;9.37;;;;;;;4.69;100.00;95322.59;5079449;28;20593;-70
2020/12/13 00:56:03;;;;;;;16.40;8.93;;;;;;;4.77;100.00;95330.44;5078334;28;20666;-69
2020/12/13 00:58:29;;;;;;;17.87;10.00;;;;;;;4.74;100.00;95335.97;5079585;28;20594;-70
2020/12/13 01:00:55;;;;;;;18.40;9.50;;;;;;;4.68;100.00;95342.66;5079029;28;20252;-70
2020/12/13 01:03:21;;;;;;;16.77;9.93;;;;;;;4.70;100.00;95337.25;5079143;28;20196;-70
2020/12/13 01:05:47;;;;;;;15.90;9.73;;;;;;;4.74;100.00;95343.81;5078448;28;20195;-70
2020/12/13 01:08:13;;;;;;;18.10;10.10;;;;;;;4.75;100.00;95342.81;5079126;28;20207;-70
2020/12/13 01:10:39;;;;;;;18.47;10.27;;;;;;;4.82;100.00;95350.66;5078929;28;21235;-70
2020/12/13 01:13:06;;;;;;;17.07;10.53;;;;;;;4.82;100.00;95351.63;5079160;28;20239;-69
2020/12/13 01:15:32;;;;;;;18.00;9.33;;;;;;;4.76;100.00;95353.09;5078771;28;20206;-70
2020/12/13 01:17:57;;;;;;;18.07;10.57;;;;;;;4.77;100.00;95353.91;5078991;28;20224;-70
2020/12/13 01:20:23;;;;;;;18.67;10.17;;;;;;;4.67;100.00;95354.09;5078716;28;20220;-70
2020/12/13 01:22:51;;;;;;;16.20;8.27;;;;;;;4.82;100.00;95357.66;5078659;28;20686;-69
2020/12/13 01:25:17;;;;;;;18.87;9.97;;;;;;;4.82;100.00;95362.06;5077797;28;20857;-70
2020/12/13 01:27:43;;;;;;;16.07;9.23;;;;;;;4.80;100.00;95364.84;5078821;28;20224;-70
2020/12/13 01:30:09;;;;;;;22.17;10.10;;;;;;;4.80;100.00;95364.84;5078466;28;20264;-70
2020/12/13 01:32:37;;;;;;;19.10;9.73;;;;;;;4.83;100.00;95374.94;5078908;28;20576;-70
2020/12/13 01:35:04;;;;;;;17.23;10.07;;;;;;;4.82;100.00;95372.50;5078191;28;20290;-70
2020/12/13 01:37:30;;;;;;;17.20;10.40;;;;;;;4.83;100.00;95380.16;5078327;28;20222;-70
2020/12/13 01:39:56;;;;;;;19.00;9.73;;;;;;;4.85;100.00;95378.22;5078912;28;20223;-70
2020/12/13 01:42:21;;;;;;;18.40;10.10;;;;;;;4.79;100.00;95383.28;5077705;28;20286;-70
2020/12/13 01:44:47;;;;;;;17.23;9.83;;;;;;;4.80;100.00;95379.66;5078338;28;20225;-69
2020/12/13 01:47:14;;;;;;;18.57;10.43;;;;;;;4.86;100.00;95391.09;5078859;28;20253;-70
2020/12/13 01:49:42;;;;;;;19.80;10.83;;;;;;;4.94;100.00;95392.91;5077971;28;20230;-70
2020/12/13 01:55:01;;;;;;;19.87;10.20;;;;;;;4.98;100.00;95404.66;5078052;28;20264;-70
2020/12/13 01:57:30;;;;;;;18.63;10.30;;;;;;;4.86;100.00;95396.31;5077928;28;20582;-70
2020/12/13 01:59:59;;;;;;;20.03;10.80;;;;;;;4.83;100.00;95391.41;5076971;28;20224;-70
2020/12/13 02:02:31;;;;;;;19.00;10.33;;;;;;;4.86;100.00;95398.09;5078090;28;20253;-70
2020/12/13 02:04:59;;;;;;;17.77;10.40;;;;;;;4.88;100.00;95398.75;5077795;28;20207;-70
2020/12/13 02:07:29;;;;;;;19.83;10.37;;;;;;;4.77;100.00;95406.09;5077758;28;20196;-70
2020/12/13 02:09:55;;;;;;;18.43;10.17;;;;;;;4.86;100.00;95406.75;5078032;28;20235;-70
2020/12/13 02:12:21;;;;;;;19.37;10.70;;;;;;;4.78;100.00;95405.13;5078336;28;20558;-70
2020/12/13 02:14:47;;;;;;;20.17;11.17;;;;;;;4.80;100.00;95411.81;5077825;28;20208;-70
2020/12/13 02:17:13;;;;;;;20.40;11.23;;;;;;;4.76;100.00;95407.91;5077423;28;20671;-70
2020/12/13 02:19:40;;;;;;;19.70;10.70;;;;;;;4.81;100.00;95407.41;5078101;28;20211;-70
2020/12/13 02:22:11;;;;;;;21.03;11.50;;;;;;;4.82;100.00;95405.47;5077366;28;20441;-70
2020/12/13 02:24:37;;;;;;;25.63;12.57;;;;;;;4.78;100.00;95410.34;5077707;28;20200;-70
2020/12/13 02:27:07;;;;;;;19.63;10.60;;;;;;;4.85;100.00;95409.53;5077326;28;20643;-70
2020/12/13 02:29:33;;;;;;;21.37;11.53;;;;;;;4.84;100.00;95408.72;5077707;28;20645;-70
2020/12/13 02:31:59;;;;;;;19.00;10.70;;;;;;;4.89;100.00;95416.06;5077596;28;20222;-70
2020/12/13 02:34:25;;;;;;;20.27;11.43;;;;;;;4.90;100.00;95412.44;5078069;28;20200;-70
2020/12/13 02:36:51;;;;;;;19.93;11.20;;;;;;;4.88;100.00;95410.00;5076693;28;20227;-70
2020/12/13 02:39:17;;;;;;;18.77;10.60;;;;;;;4.87;100.00;95420.63;5077617;28;20219;-70
2020/12/13 02:41:43;;;;;;;19.73;10.87;;;;;;;4.93;100.00;95417.38;5077543;28;20204;-71
2020/12/13 02:44:09;;;;;;;21.13;11.43;;;;;;;4.89;100.00;95419.47;5077648;28;20211;-70
2020/12/13 02:46:35;;;;;;;19.97;10.90;;;;;;;4.87;100.00;95418.84;5076791;28;20204;-69
2020/12/13 02:49:01;;;;;;;19.50;10.60;;;;;;;4.88;100.00;95425.66;5076943;28;20202;-71
2020/12/13 02:51:27;;;;;;;19.40;10.03;;;;;;;4.87;100.00;95426.69;5077966;28;20202;-70
2020/12/13 02:53:53;;;;;;;19.13;10.47;;;;;;;4.87;100.00;95423.22;5077253;28;20207;-70
2020/12/13 02:56:20;;;;;;;18.77;10.00;;;;;;;4.78;100.00;95424.19;5076699;28;20213;-70
2020/12/13 02:58:46;;;;;;;20.73;10.37;;;;;;;4.83;100.00;95427.16;5077892;28;20700;-70
2020/12/13 03:01:12;;;;;;;20.30;11.00;;;;;;;4.85;100.00;95433.84;5077144;28;20269;-70
2020/12/13 03:03:38;;;;;;;18.97;10.60;;;;;;;4.85;100.00;95433.84;5077102;28;20582;-70
2020/12/13 03:06:04;;;;;;;21.23;10.53;;;;;;;4.96;100.00;95441.38;5076968;28;20247;-70
2020/12/13 03:08:30;;;;;;;22.07;10.83;;;;;;;4.82;100.00;95434.16;5077428;28;20200;-70
2020/12/13 03:10:55;;;;;;;19.13;10.27;;;;;;;4.89;100.00;95437.75;5078384;28;20227;-71
2020/12/13 03:13:22;;;;;;;22.73;11.07;;;;;;;4.83;100.00;95438.38;5081362;28;20909;-71
2020/12/13 03:15:48;;;;;;;22.53;11.63;;;;;;;4.81;100.00;95449.16;5080841;28;20258;-69
2020/12/13 03:18:14;;;;;;;20.87;11.10;;;;;;;4.82;100.00;95447.22;5081551;28;20805;-70
2020/12/13 03:20:40;;;;;;;21.57;11.23;;;;;;;4.86;100.00;95443.31;5080743;28;20223;-70
2020/12/13 03:23:06;;;;;;;17.77;9.67;;;;;;;4.86;100.00;95448.53;5081694;28;20204;-70
2020/12/13 03:25:32;;;;;;;21.43;10.97;;;;;;;4.89;100.00;95448.19;5080669;28;20195;-70
2020/12/13 03:27:58;;;;;;;21.27;10.47;;;;;;;4.86;100.00;95448.53;5080893;28;20207;-70
2020/12/13 03:30:24;;;;;;;24.60;12.63;;;;;;;4.83;100.00;95458.47;5081058;28;20733;-70
2020/12/13 03:32:50;;;;;;;23.90;10.80;;;;;;;4.80;100.00;95456.19;5081335;28;20747;-71
2020/12/13 03:35:16;;;;;;;22.20;11.23;;;;;;;4.85;100.00;95457.31;5080246;28;20298;-70
2020/12/13 03:37:42;;;;;;;22.53;11.03;;;;;;;4.83;100.00;95458.47;5081362;28;20234;-70
2020/12/13 03:40:11;;;;;;;19.80;8.87;;;;;;;4.87;100.00;95470.22;5081158;28;20219;-70
2020/12/13 03:42:37;;;;;;;23.13;11.27;;;;;;;4.91;100.00;95472.34;5079064;28;20603;-70
2020/12/13 03:45:03;;;;;;;22.60;11.70;;;;;;;4.93;100.00;95475.59;5080225;28;20200;-70
2020/12/13 03:47:30;;;;;;;23.07;11.83;;;;;;;4.94;100.00;95474.63;5081174;28;20192;-70
2020/12/13 03:49:56;;;;;;;23.60;11.60;;;;;;;5.02;100.00;95473.81;5080438;28;20227;-70
2020/12/13 03:52:21;;;;;;;23.70;11.50;;;;;;;4.95;100.00;95473.66;5080465;28;20639;-71
2020/12/13 03:54:47;;;;;;;25.40;12.27;;;;;;;4.95;100.00;95475.44;5080666;28;20296;-71
2020/12/13 03:57:13;;;;;;;23.27;11.40;;;;;;;4.98;100.00;95473.31;5080502;28;20334;-71
2020/12/13 03:59:39;;;;;;;24.27;11.43;;;;;;;4.95;100.00;95478.88;5080111;28;20882;-71
2020/12/13 04:02:06;;;;;;;25.63;11.27;;;;;;;4.93;100.00;95480.00;5080879;28;20227;-71
2020/12/13 04:04:32;;;;;;;24.27;11.57;;;;;;;4.94;100.00;95479.03;5080503;28;20249;-70
2020/12/13 04:06:58;;;;;;;22.83;11.43;;;;;;;4.93;100.00;95480.81;5079235;28;20203;-71
2020/12/13 04:09:24;;;;;;;25.03;12.13;;;;;;;4.97;100.00;95481.31;5080597;28;20219;-70
2020/12/13 04:11:50;;;;;;;22.53;11.20;;;;;;;4.95;100.00;95488.47;5081526;28;20199;-71
2020/12/13 04:14:16;;;;;;;22.33;10.67;;;;;;;4.94;100.00;95492.91;5080037;28;20204;-71
2020/12/13 04:16:44;;;;;;;24.20;11.33;;;;;;;4.90;100.00;95491.59;5079458;28;20265;-70
2020/12/13 04:19:10;;;;;;;26.47;12.57;;;;;;;4.81;100.00;95503.97;5080766;28;20289;-70
2020/12/13 04:21:38;;;;;;;25.73;12.03;;;;;;;4.83;100.00;95506.25;5079400;28;20578;-70
2020/12/13 04:24:04;;;;;;;24.90;11.20;;;;;;;4.84;100.00;95497.44;5080569;28;20210;-70
2020/12/13 04:26:31;;;;;;;27.33;12.57;;;;;;;4.84;100.00;95505.28;5080057;28;20219;-70
2020/12/13 04:28:57;;;;;;;26.63;12.00;;;;;;;4.88;100.00;95506.59;5079871;28;20215;-70
2020/12/13 04:31:23;;;;;;;24.73;11.70;;;;;;;4.91;100.00;95508.06;5080025;28;20208;-70
2020/12/13 04:33:49;;;;;;;27.77;11.00;;;;;;;4.88;100.00;95514.41;5080546;28;20299;-70
2020/12/13 04:36:15;;;;;;;28.13;12.77;;;;;;;4.85;100.00;95517.34;5079261;28;20195;-70
2020/12/13 04:38:42;;;;;;;26.93;12.57;;;;;;;4.86;100.00;95521.59;5080158;28;20704;-70
2020/12/13 04:41:08;;;;;;;26.63;12.03;;;;;;;4.89;100.00;95521.28;5079715;28;20256;-71
2020/12/13 04:43:34;;;;;;;30.80;13.53;;;;;;;4.88;100.00;95524.84;5080364;28;20202;-70
2020/12/13 04:46:00;;;;;;;26.30;13.03;;;;;;;4.84;100.00;95522.75;5079579;28;20199;-70
2020/12/13 04:48:27;;;;;;;26.23;12.27;;;;;;;4.82;100.00;95523.88;5079475;28;20211;-70
2020/12/13 04:50:53;;;;;;;26.97;12.57;;;;;;;4.84;100.00;95535.78;5079580;28;20599;-70
2020/12/13 04:53:19;;;;;;;26.53;13.10;;;;;;;4.86;100.00;95531.22;5080071;28;20246;-70
2020/12/13 04:55:53;;;;;;;26.57;12.33;;;;;;;4.85;100.00;95545.25;5078990;28;20204;-70
2020/12/13 04:58:20;;;;;;;27.33;13.20;;;;;;;4.85;100.00;95546.06;5079497;28;20219;-70
2020/12/13 05:00:52;;;;;;;26.77;13.57;;;;;;;4.80;100.00;95547.53;5079298;28;20251;-71
2020/12/13 05:03:18;;;;;;;29.13;12.33;;;;;;;4.79;100.00;95556.31;5079678;28;20253;-71
2020/12/13 05:05:44;;;;;;;33.20;14.83;;;;;;;4.91;100.00;95565.47;5079003;28;20985;-71
2020/12/13 05:08:10;;;;;;;30.27;13.20;;;;;;;4.91;100.00;95566.31;5079192;28;20207;-70
2020/12/13 05:10:38;;;;;;;27.50;13.00;;;;;;;4.94;100.00;95573.03;5079537;28;20227;-70
2020/12/13 05:13:05;;;;;;;25.93;12.67;;;;;;;4.88;100.00;95566.63;5079996;28;20202;-71
2020/12/13 05:15:32;;;;;;;22.47;9.87;;;;;;;4.99;100.00;95575.94;5078746;28;20238;-70
2020/12/13 05:17:59;;;;;;;28.23;13.30;;;;;;;4.94;100.00;95565.19;5078831;28;20220;-70
2020/12/13 05:20:27;;;;;;;29.23;13.20;;;;;;;4.95;100.00;95578.06;5079588;28;20219;-70
2020/12/13 05:22:55;;;;;;;28.27;12.63;;;;;;;4.91;100.00;95574.16;5079503;28;20214;-71
2020/12/13 05:25:29;;;;;;;25.67;12.30;;;;;;;4.98;100.00;95582.16;5077877;28;20192;-70
2020/12/13 05:27:56;;;;;;;26.90;12.73;;;;;;;4.99;100.00;95592.44;5077962;28;20260;-71
2020/12/13 05:30:29;;;;;;;28.93;13.90;;;;;;;4.92;100.00;95582.78;5079235;28;20215;-71
2020/12/13 05:33:06;;;;;;;26.90;13.20;;;;;;;5.02;100.00;95588.69;5078824;28;20219;-71
2020/12/13 05:35:33;;;;;;;27.60;13.30;;;;;;;4.97;100.00;95586.53;5077518;28;20765;-71
2020/12/13 05:37:59;;;;;;;26.43;12.77;;;;;;;5.06;100.00;95590.00;5078835;28;20243;-71
2020/12/13 05:40:25;;;;;;;27.13;13.20;;;;;;;4.98;100.00;95593.41;5078534;28;20223;-70
2020/12/13 05:43:00;;;;;;;30.57;13.13;;;;;;;4.93;100.00;95590.44;5078044;28;20210;-70
2020/12/13 05:51:18;;;;;;;28.17;13.00;;;;;;;4.88;100.00;95592.72;5078319;28;20215;-70
2020/12/13 05:53:44;;;;;;;27.67;13.13;;;;;;;4.90;100.00;95598.59;5078785;28;20294;-70
2020/12/13 05:56:12;;;;;;;27.83;12.63;;;;;;;4.94;100.00;95599.13;5077820;28;20227;-70
2020/12/13 05:58:38;;;;;;;27.63;13.67;;;;;;;4.97;100.00;95607.44;5077549;28;20589;-70
2020/12/13 06:01:05;;;;;;;29.23;12.73;;;;;;;4.95;100.00;95609.41;5078700;28;20309;-71
2020/12/13 06:03:33;;;;;;;28.00;13.27;;;;;;;4.99;100.00;95613.31;5078744;28;20214;-71
2020/12/13 06:06:04;;;;;;;28.37;13.57;;;;;;;5.05;100.00;95609.25;5077235;28;20196;-72
2020/12/13 06:08:46;;;;;;;25.03;13.03;;;;;;;5.02;100.00;95615.59;5078252;28;20199;-72
2020/12/13 06:11:13;;;;;;;28.73;13.60;;;;;;;5.06;100.00;95614.31;5078459;28;20230;-71
2020/12/13 06:13:45;;;;;;;33.27;16.17;;;;;;;5.04;100.00;95611.06;5077746;28;20196;-70
2020/12/13 06:16:13;;;;;;;30.13;15.03;;;;;;;5.04;100.00;95621.50;5077825;28;20195;-70
2020/12/13 06:18:39;;;;;;;35.23;16.87;;;;;;;5.00;100.00;95614.13;5078115;28;20220;-70
2020/12/13 06:21:08;;;;;;;33.37;15.87;;;;;;;4.99;100.00;95626.38;5077757;28;20228;-70
2020/12/13 06:23:36;;;;;;;35.20;16.23;;;;;;;5.05;100.00;95623.16;5078325;28;20572;-70
2020/12/13 06:26:02;;;;;;;40.90;19.00;;;;;;;4.92;100.00;95620.13;5078022;28;20196;-71
2020/12/13 06:28:28;;;;;;;36.90;18.03;;;;;;;4.89;100.00;95627.47;5077888;28;20204;-71
2020/12/13 06:30:55;;;;;;;34.73;15.50;;;;;;;4.82;100.00;95626.47;5077845;28;20224;-71
2020/12/13 06:33:22;;;;;;;35.83;15.47;;;;;;;4.77;100.00;95635.75;5079076;28;20200;-71
2020/12/13 06:35:50;;;;;;;37.60;15.77;;;;;;;4.78;100.00;95640.81;5077844;28;20199;-71
2020/12/13 06:38:17;;;;;;;37.17;16.10;;;;;;;4.78;100.00;95643.41;5077741;28;20228;-71
2020/12/13 06:40:43;;;;;;;38.50;17.57;;;;;;;4.81;100.00;95647.50;5077713;28;20234;-71
2020/12/13 06:43:09;;;;;;;40.57;16.87;;;;;;;4.73;100.00;95644.88;5078477;28;20214;-71
2020/12/13 06:45:35;;;;;;;35.57;16.27;;;;;;;4.74;100.00;95651.72;5076999;28;20389;-71
2020/12/13 06:48:01;;;;;;;36.73;16.13;;;;;;;4.73;100.00;95660.53;5078009;28;20867;-71
2020/12/13 06:50:28;;;;;;;37.87;15.90;;;;;;;4.77;100.00;95662.66;5078112;28;20226;-71
2020/12/13 06:52:54;;;;;;;38.60;16.93;;;;;;;4.74;100.00;95662.16;5077530;28;20196;-71
2020/12/13 06:55:30;;;;;;;40.83;18.80;;;;;;;4.75;100.00;95663.78;5075467;28;20207;-71
2020/12/13 06:57:56;;;;;;;40.97;17.70;;;;;;;4.75;100.00;95664.63;5076212;28;20272;-71
2020/12/13 07:00:22;;;;;;;46.43;20.47;;;;;;;4.72;100.00;95671.94;5077447;28;20224;-70
2020/12/13 07:02:55;;;;;;;30.50;13.67;;;;;;;4.77;100.00;95667.06;5076684;28;20229;-71
2020/12/13 07:05:21;;;;;;;36.83;17.33;;;;;;;4.79;100.00;95671.16;5075721;28;20204;-71
2020/12/13 07:07:52;;;;;;;36.10;16.40;;;;;;;4.81;100.00;95678.81;5076714;28;20202;-71
2020/12/13 07:10:18;;;;;;;39.20;17.77;;;;;;;4.79;100.00;95683.41;5076772;28;20298;-71
2020/12/13 07:12:52;;;;;;;40.53;16.80;;;;;;;4.80;100.00;95682.41;5076857;28;20229;-71
2020/12/13 07:15:25;;;;;;;38.03;17.60;;;;;;;4.77;100.00;95682.72;5076316;28;20282;-71
2020/12/13 07:17:51;;;;;;;35.93;15.97;;;;;;;4.80;100.00;95693.69;5076771;28;20234;-71
2020/12/13 07:20:20;;;;;;;39.23;17.43;;;;;;;4.73;100.00;95690.03;5076844;28;20216;-71
2020/12/13 07:22:46;;;;;;;40.37;16.53;;;;;;;4.81;100.00;95691.88;5077307;28;20196;-71
2020/12/13 07:25:13;;;;;;;38.20;17.10;;;;;;;4.81;100.00;95697.91;5074343;28;20207;-71
2020/12/13 07:27:41;;;;;;;38.23;15.40;;;;;;;4.81;100.00;95695.28;5076026;28;20203;-71
2020/12/13 07:30:12;;;;;;;38.80;17.27;;;;;;;4.81;100.00;95702.31;5075534;28;20227;-71
2020/12/13 07:32:38;;;;;;;43.73;20.73;;;;;;;4.81;100.00;95702.31;5074936;28;20238;-71
2020/12/13 07:35:04;;;;;;;40.43;18.23;;;;;;;4.85;100.00;95704.47;5074840;28;20215;-71
2020/12/13 07:37:31;;;;;;;42.77;17.77;;;;;;;4.82;100.00;95714.41;5077368;28;20227;-71
2020/12/13 07:40:09;;;;;;;38.03;17.40;;;;;;;4.83;100.00;95712.44;5076202;28;20235;-71
2020/12/13 07:42:35;;;;;;;39.23;17.00;;;;;;;4.84;100.00;95719.28;5076825;28;20200;-71
2020/12/13 07:45:01;;;;;;;41.33;17.37;;;;;;;4.84;100.00;95714.06;5077058;28;20208;-71
2020/12/13 07:47:27;;;;;;;41.33;17.60;;;;;;;4.83;100.00;95728.09;5077559;28;20196;-71
2020/12/13 07:50:01;;;;;;;37.60;16.53;;;;;;;4.86;100.00;95719.13;5076615;28;20220;-71
2020/12/13 07:52:27;;;;;;;38.73;16.43;;;;;;;4.90;100.00;95725.69;5076308;28;20200;-71
2020/12/13 07:54:53;;;;;;;41.13;17.60;;;;;;;4.92;100.00;95727.16;5076619;28;20872;-71
2020/12/13 07:57:19;;;;;;;36.87;16.80;;;;;;;4.92;100.00;95735.00;5077953;28;20223;-71
2020/12/13 07:59:46;;;;;;;40.63;17.87;;;;;;;4.92;100.00;95740.22;5080280;28;20361;-71
2020/12/13 08:02:12;;;;;;;37.37;17.50;;;;;;;4.93;100.00;95741.84;5081026;28;20200;-71
2020/12/13 08:04:39;;;;;;;44.33;17.23;;;;;;;4.95;100.00;95741.69;5080590;28;20278;-71
2020/12/13 08:07:06;;;;;;;40.97;18.07;;;;;;;4.94;100.00;95746.09;5079598;28;20683;-71
2020/12/13 08:09:33;;;;;;;35.30;16.27;;;;;;;4.94;100.00;95747.91;5080653;28;20223;-71
2020/12/13 08:11:59;;;;;;;37.60;16.13;;;;;;;5.03;100.00;95755.63;5079010;28;20741;-71
2020/12/13 08:14:26;;;;;;;41.10;18.23;;;;;;;4.98;100.00;95755.25;5079746;28;20207;-71
2020/12/13 08:16:55;;;;;;;46.77;20.37;;;;;;;5.00;100.00;95757.72;5079451;28;20203;-71
2020/12/13 08:19:25;;;;;;;45.37;20.07;;;;;;;5.02;100.00;95761.81;5079753;28;20274;-71
2020/12/13 08:21:58;;;;;;;45.33;20.23;;;;;;;5.00;100.00;95763.78;5079175;28;20200;-71
2020/12/13 08:24:24;;;;;;;42.90;19.60;;;;;;;5.02;100.00;95774.06;5080402;28;20622;-71
2020/12/13 08:26:53;;;;;;;42.27;20.00;;;;;;;5.02;100.00;95772.25;5079760;28;20211;-71
2020/12/13 08:29:20;;;;;;;38.10;17.17;;;;;;;5.03;100.00;95770.47;5080275;28;20216;-71
2020/12/13 08:31:48;;;;;;;37.77;16.67;;;;;;;5.05;100.00;95771.97;5080019;28;20219;-72
2020/12/13 08:34:23;;;;;;;37.47;17.73;;;;;;;5.05;100.00;95774.56;5082348;28;20200;-72
2020/12/13 08:36:51;;;;;;;36.13;16.27;;;;;;;5.02;100.00;95774.88;5081921;28;20198;-72
2020/12/13 08:39:24;;;;;;;40.53;16.97;;;;;;;5.06;100.00;95783.22;5082271;28;21149;-72
2020/12/13 08:41:50;;;;;;;33.47;15.50;;;;;;;5.05;100.00;95785.03;5082188;28;20539;-72
2020/12/13 08:44:30;;;;;;;35.87;17.43;;;;;;;5.05;100.00;95787.63;5081855;28;20215;-72
2020/12/13 08:46:58;;;;;;;33.57;16.40;;;;;;;5.08;100.00;95787.31;5080781;28;20586;-72
2020/12/13 08:49:26;;;;;;;34.00;15.87;;;;;;;5.09;100.00;95799.41;5081464;28;20220;-72
2020/12/13 08:51:52;;;;;;;32.67;15.97;;;;;;;5.13;100.00;95800.72;5081254;28;20196;-72
2020/12/13 08:54:18;;;;;;;33.23;16.80;;;;;;;5.11;100.00;95797.44;5080193;28;20199;-72
2020/12/13 08:56:44;;;;;;;31.63;14.67;;;;;;;5.11;100.00;95802.66;5079808;28;20200;-72
2020/12/13 08:59:10;;;;;;;36.87;16.80;;;;;;;5.08;100.00;95810.00;5081321;28;20924;-72
2020/12/13 09:01:38;;;;;;;35.63;16.87;;;;;;;5.09;100.00;95809.84;5081669;28;20200;-72
2020/12/13 09:04:19;;;;;;;32.77;14.00;;;;;;;5.08;100.00;95813.44;5081828;28;20608;-72
2020/12/13 09:06:57;;;;;;;27.33;12.87;;;;;;;5.11;100.00;95813.09;5079053;28;20203;-72
2020/12/13 09:09:27;;;;;;;27.77;13.73;;;;;;;5.09;100.00;95822.91;5079743;28;20242;-72
2020/12/13 09:11:53;;;;;;;25.70;12.87;;;;;;;5.09;100.00;95825.50;5078610;28;20223;-72
2020/12/13 09:14:31;;;;;;;24.87;11.90;;;;;;;5.10;100.00;95827.13;5078640;28;20211;-72
2020/12/13 09:16:59;;;;;;;22.27;11.10;;;;;;;5.11;100.00;95838.41;5077691;28;20207;-72
2020/12/13 09:19:25;;;;;;;24.27;12.80;;;;;;;5.13;100.00;95836.44;5077626;28;20215;-72
2020/12/13 09:21:54;;;;;;;24.57;13.20;;;;;;;5.10;100.00;95840.19;5078612;28;20196;-72
2020/12/13 09:24:23;;;;;;;27.83;13.40;;;;;;;5.16;100.00;95839.56;5078667;28;20195;-72
2020/12/13 09:27:07;;;;;;;19.90;8.73;;;;;;;5.20;100.00;95842.72;5077589;28;20211;-72
2020/12/13 09:29:35;;;;;;;26.73;13.07;;;;;;;5.19;100.00;95851.50;5077726;28;20216;-72
2020/12/13 09:32:01;;;;;;;22.60;11.73;;;;;;;5.18;100.00;95850.72;5078217;28;20218;-72
2020/12/13 09:34:27;;;;;;;30.13;13.37;;;;;;;5.20;100.00;95851.34;5078266;28;20581;-73
2020/12/13 09:36:54;;;;;;;23.80;12.87;;;;;;;5.20;100.00;95853.97;5077434;28;20234;-72
2020/12/13 09:39:21;;;;;;;30.77;13.23;;;;;;;5.18;100.00;95857.69;5077945;28;20231;-72
2020/12/13 09:41:47;;;;;;;26.93;13.90;;;;;;;5.15;100.00;95858.03;5078144;28;20670;-72
2020/12/13 09:44:13;;;;;;;28.00;13.97;;;;;;;5.14;100.00;95859.81;5077690;28;20235;-72
2020/12/13 09:46:39;;;;;;;27.47;14.43;;;;;;;5.16;100.00;95859.66;5077417;28;20202;-72
2020/12/13 09:49:05;;;;;;;36.77;17.10;;;;;;;5.20;100.00;95863.59;5078031;28;20823;-72
2020/12/13 09:51:31;;;;;;;31.97;14.43;;;;;;;5.23;100.00;95861.50;5077928;28;20200;-72
2020/12/13 09:53:57;;;;;;;27.70;13.47;;;;;;;5.27;100.00;95862.84;5077622;28;20206;-72
2020/12/13 09:56:23;;;;;;;27.27;13.80;;;;;;;5.33;100.00;95870.03;5077336;28;20200;-72
2020/12/13 09:58:49;;;;;;;22.57;12.73;;;;;;;5.38;100.00;95866.97;5076739;28;20969;-72
2020/12/13 10:01:16;;;;;;;25.67;12.70;;;;;;;5.47;100.00;95867.69;5078061;28;20228;-72
2020/12/13 10:03:46;;;;;;;25.90;13.43;;;;;;;5.55;100.00;95869.53;5077352;28;20196;-72
2020/12/13 10:09:03;;;;;;;21.17;10.70;;;;;;;5.59;100.00;95863.03;5067944;28;20211;-71
2020/12/13 10:11:30;;;;;;;22.10;12.43;;;;;;;5.63;100.00;95862.53;5076706;28;20206;-72
2020/12/13 10:13:57;;;;;;;21.00;11.23;;;;;;;5.58;100.00;95864.78;5077154;28;21024;-72
2020/12/13 10:16:23;;;;;;;19.93;11.10;;;;;;;5.61;100.00;95856.66;5077611;28;20290;-71
2020/12/13 10:18:49;;;;;;;22.63;11.40;;;;;;;5.69;100.00;95853.25;5076761;28;20659;-72
2020/12/13 10:21:20;;;;;;;21.83;11.53;;;;;;;5.69;100.00;95858.47;5076867;28;20220;-72
2020/12/13 10:23:46;;;;;;;20.50;10.80;;;;;;;5.64;100.00;95860.75;5077340;28;20569;-72
2020/12/13 10:26:12;;;;;;;16.70;9.23;;;;;;;5.65;100.00;95851.94;5076068;28;20211;-72
2020/12/13 10:28:39;;;;;;;18.27;10.53;;;;;;;5.77;100.00;95859.38;5076279;28;20199;-71
2020/12/13 10:31:05;;;;;;;18.10;10.00;;;;;;;5.75;100.00;95860.47;5075774;28;20230;-71
2020/12/13 10:33:31;;;;;;;20.43;10.83;;;;;;;5.83;100.00;95853.53;5076596;28;20249;-71
2020/12/13 10:35:57;;;;;;;20.73;11.57;;;;;;;5.90;100.00;95853.72;5075220;28;20633;-72
2020/12/13 10:38:23;;;;;;;18.37;10.70;;;;;;;5.91;100.00;95850.94;5076501;28;20219;-72
2020/12/13 10:40:49;;;;;;;17.37;9.90;;;;;;;5.93;100.00;95853.38;5076876;28;21432;-72
2020/12/13 10:43:15;;;;;;;18.37;10.80;;;;;;;6.00;100.00;95849.19;5076955;28;20897;-72
2020/12/13 10:45:41;;;;;;;23.47;11.60;;;;;;;6.06;100.00;95850.16;5076192;28;20207;-72
2020/12/13 10:48:07;;;;;;;22.73;11.70;;;;;;;6.09;100.00;95852.44;5077227;28;20574;-72
2020/12/13 10:50:37;;;;;;;18.43;9.87;;;;;;;6.10;100.00;95856.72;5076717;28;20219;-72
2020/12/13 10:53:03;;;;;;;16.03;9.17;;;;;;;6.11;100.00;95853.13;5076190;28;21261;-72
2020/12/13 10:55:29;;;;;;;16.47;9.63;;;;;;;6.05;100.00;95863.41;5076419;28;20214;-72
2020/12/13 10:57:55;;;;;;;14.40;8.53;;;;;;;6.06;100.00;95865.84;5076599;28;20687;-72
2020/12/13 11:00:23;;;;;;;17.67;10.10;;;;;;;6.00;100.00;95864.88;5076171;28;20257;-71
2020/12/13 11:02:50;;;;;;;16.10;9.40;;;;;;;6.04;100.00;95865.19;5077178;28;20230;-72
2020/12/13 11:05:16;;;;;;;19.53;9.93;;;;;;;6.00;100.00;95860.44;5076233;28;20223;-72
2020/12/13 11:07:42;;;;;;;19.07;9.80;;;;;;;5.98;100.00;95866.81;5075602;28;20199;-72
2020/12/13 11:10:08;;;;;;;16.33;8.83;;;;;;;5.97;100.00;95867.78;5076980;28;20220;-72
2020/12/13 11:12:34;;;;;;;19.87;9.43;;;;;;;5.97;100.00;95870.38;5076264;28;20199;-72
2020/12/13 11:15:00;;;;;;;20.13;10.90;;;;;;;5.94;100.00;95866.28;5074375;28;20200;-72
2020/12/13 11:17:26;;;;;;;16.93;9.27;;;;;;;5.98;100.00;95870.22;5076621;28;20196;-71
2020/12/13 11:19:53;;;;;;;16.23;8.83;;;;;;;5.96;100.00;95874.81;5076601;28;20261;-72
2020/12/13 11:22:19;;;;;;;13.63;7.33;;;;;;;5.95;100.00;95875.78;5076471;28;20211;-72
2020/12/13 11:24:45;;;;;;;13.73;8.50;;;;;;;5.98;100.00;95877.25;5076394;28;20211;-71
2020/12/13 11:27:11;;;;;;;17.47;10.17;;;;;;;5.93;100.00;95882.16;5076009;28;20208;-72
2020/12/13 11:29:37;;;;;;;18.80;9.83;;;;;;;5.89;100.00;95879.00;5076548;28;20231;-72
2020/12/13 11:32:04;;;;;;;22.00;9.67;;;;;;;5.89;100.00;95880.81;5077350;28;20660;-72